sensor_id;sensor_type;location;lat;lon;timestamp;pressure;altitude;pressure_sealevel;temperature;humidity
71344;BME280;59146;43.850;25.948;2022-11-13T00:00:56;102854.56;;;7.81;85.66
71344;BME280;59146;43.850;25.948;2022-11-13T00:03:21;102882.06;;;8.00;85.90
71344;BME280;59146;43.850;25.948;2022-11-13T00:05:47;102867.47;;;7.90;86.20
71344;BME280;59146;43.850;25.948;2022-11-13T00:08:13;102911.31;;;8.22;85.88
71344;BME280;59146;43.850;25.948;2022-11-13T00:10:38;102844.25;;;7.74;86.69
71344;BME280;59146;43.850;25.948;2022-11-13T00:13:04;102870.84;;;8.00;87.08
71344;BME280;59146;43.850;25.948;2022-11-13T00:15:29;102855.25;;;7.97;87.09
71344;BME280;59146;43.850;25.948;2022-11-13T00:17:55;102914.75;;;8.27;87.87
71344;BME280;59146;43.850;25.948;2022-11-13T00:20:20;102909.56;;;8.24;87.88
71344;BME280;59146;43.850;25.948;2022-11-13T00:22:46;102872.50;;;8.02;88.01
71344;BME280;59146;43.850;25.948;2022-11-13T00:25:11;102841.41;;;7.92;88.33
71344;BME280;59146;43.850;25.948;2022-11-13T00:27:37;102900.28;;;8.03;90.11
71344;BME280;59146;43.850;25.948;2022-11-13T00:30:03;102806.47;;;7.43;90.99
71344;BME280;59146;43.850;25.948;2022-11-13T00:32:29;102898.59;;;7.99;91.41
71344;BME280;59146;43.850;25.948;2022-11-13T00:34:54;102876.84;;;8.03;90.99
71344;BME280;59146;43.850;25.948;2022-11-13T00:37:19;102892.34;;;8.14;90.75
71344;BME280;59146;43.850;25.948;2022-11-13T00:39:45;102814.75;;;7.73;90.85
71344;BME280;59146;43.850;25.948;2022-11-13T00:42:10;102835.44;;;7.87;91.23
71344;BME280;59146;43.850;25.948;2022-11-13T00:44:36;102850.97;;;7.90;91.43
71344;BME280;59146;43.850;25.948;2022-11-13T00:47:01;102885.38;;;8.13;91.78
71344;BME280;59146;43.850;25.948;2022-11-13T00:49:27;102859.56;;;7.96;91.66
71344;BME280;59146;43.850;25.948;2022-11-13T00:51:52;102904.41;;;8.20;89.33
71344;BME280;59146;43.850;25.948;2022-11-13T00:54:18;102906.41;;;7.96;89.24
71344;BME280;59146;43.850;25.948;2022-11-13T00:56:43;102884.13;;;7.76;88.44
71344;BME280;59146;43.850;25.948;2022-11-13T00:59:09;102852.19;;;7.63;88.53
71344;BME280;59146;43.850;25.948;2022-11-13T01:01:35;102915.31;;;7.79;88.91
71344;BME280;59146;43.850;25.948;2022-11-13T01:04:00;102847.38;;;7.26;89.80
71344;BME280;59146;43.850;25.948;2022-11-13T01:06:27;102826.66;;;7.19;89.24
71344;BME280;59146;43.850;25.948;2022-11-13T01:08:54;102877.50;;;7.49;89.36
71344;BME280;59146;43.850;25.948;2022-11-13T01:11:22;102908.66;;;7.54;90.40
71344;BME280;59146;43.850;25.948;2022-11-13T01:13:50;102902.53;;;7.56;89.63
71344;BME280;59146;43.850;25.948;2022-11-13T01:16:18;102917.47;;;7.38;89.16
71344;BME280;59146;43.850;25.948;2022-11-13T01:18:43;102896.00;;;7.16;88.48
71344;BME280;59146;43.850;25.948;2022-11-13T01:21:12;102839.91;;;6.92;88.91
71344;BME280;59146;43.850;25.948;2022-11-13T01:23:39;102906.22;;;7.36;88.69
71344;BME280;59146;43.850;25.948;2022-11-13T01:26:07;102906.28;;;7.30;89.33
71344;BME280;59146;43.850;25.948;2022-11-13T01:28:33;102853.69;;;7.00;88.48
71344;BME280;59146;43.850;25.948;2022-11-13T01:30:58;102924.41;;;7.36;88.45
71344;BME280;59146;43.850;25.948;2022-11-13T01:33:23;102836.47;;;6.90;88.40
71344;BME280;59146;43.850;25.948;2022-11-13T01:35:49;102834.72;;;6.91;88.81
71344;BME280;59146;43.850;25.948;2022-11-13T01:38:14;102907.16;;;7.27;90.19
71344;BME280;59146;43.850;25.948;2022-11-13T01:40:46;102870.75;;;7.29;90.54
71344;BME280;59146;43.850;25.948;2022-11-13T01:43:33;102820.81;;;6.93;90.79
71344;BME280;59146;43.850;25.948;2022-11-13T01:49:19;102801.84;;;6.88;91.15
71344;BME280;59146;43.850;25.948;2022-11-13T01:51:25;102898.25;;;7.54;91.31
71344;BME280;59146;43.850;25.948;2022-11-13T01:53:52;102789.66;;;6.92;91.20
71344;BME280;59146;43.850;25.948;2022-11-13T01:56:18;102835.22;;;7.28;90.42
71344;BME280;59146;43.850;25.948;2022-11-13T02:01:41;102817.97;;;7.22;90.63
71344;BME280;59146;43.850;25.948;2022-11-13T02:04:06;102827.53;;;7.20;90.75
71344;BME280;59146;43.850;25.948;2022-11-13T02:06:37;102830.06;;;7.26;90.91
71344;BME280;59146;43.850;25.948;2022-11-13T02:09:05;102827.50;;;7.18;91.27
71344;BME280;59146;43.850;25.948;2022-11-13T02:11:31;102831.84;;;7.19;91.27
71344;BME280;59146;43.850;25.948;2022-11-13T02:13:57;102792.94;;;7.10;91.49
71344;BME280;59146;43.850;25.948;2022-11-13T02:16:23;102863.47;;;7.61;91.62
71344;BME280;59146;43.850;25.948;2022-11-13T02:18:49;102785.91;;;7.21;90.85
71344;BME280;59146;43.850;25.948;2022-11-13T02:21:34;102885.91;;;7.71;90.73
71344;BME280;59146;43.850;25.948;2022-11-13T02:24:22;102885.94;;;7.68;90.99
71344;BME280;59146;43.850;25.948;2022-11-13T02:26:49;102792.94;;;7.13;91.11
71344;BME280;59146;43.850;25.948;2022-11-13T02:29:16;102830.78;;;7.39;91.13
71344;BME280;59146;43.850;25.948;2022-11-13T02:31:41;102855.63;;;7.65;91.20
71344;BME280;59146;43.850;25.948;2022-11-13T02:34:07;102830.91;;;7.28;91.50
71344;BME280;59146;43.850;25.948;2022-11-13T02:36:32;102857.66;;;7.39;92.04
71344;BME280;59146;43.850;25.948;2022-11-13T02:39:00;102882.59;;;7.57;92.51
71344;BME280;59146;43.850;25.948;2022-11-13T02:41:27;102818.81;;;7.21;91.92
71344;BME280;59146;43.850;25.948;2022-11-13T02:43:53;102848.16;;;7.34;92.33
71344;BME280;59146;43.850;25.948;2022-11-13T02:46:18;102810.34;;;7.05;92.06
71344;BME280;59146;43.850;25.948;2022-11-13T02:48:43;102840.53;;;7.20;92.21
71344;BME280;59146;43.850;25.948;2022-11-13T02:51:09;102817.25;;;7.06;92.36
71344;BME280;59146;43.850;25.948;2022-11-13T02:53:34;102827.53;;;7.17;91.67
71344;BME280;59146;43.850;25.948;2022-11-13T02:56:00;102840.34;;;7.37;91.14
71344;BME280;59146;43.850;25.948;2022-11-13T02:58:25;102898.03;;;7.75;90.04
71344;BME280;59146;43.850;25.948;2022-11-13T03:00:50;102849.03;;;7.34;89.77
71344;BME280;59146;43.850;25.948;2022-11-13T03:03:16;102888.56;;;7.66;89.30
71344;BME280;59146;43.850;25.948;2022-11-13T03:05:41;102811.19;;;7.07;89.42
71344;BME280;59146;43.850;25.948;2022-11-13T03:08:07;102838.75;;;7.20;89.94
71344;BME280;59146;43.850;25.948;2022-11-13T03:10:32;102859.44;;;7.34;90.26
71344;BME280;59146;43.850;25.948;2022-11-13T03:12:58;102839.66;;;7.19;90.76
71344;BME280;59146;43.850;25.948;2022-11-13T03:15:23;102817.31;;;7.00;90.85
71344;BME280;59146;43.850;25.948;2022-11-13T03:17:49;102832.88;;;7.02;91.19
71344;BME280;59146;43.850;25.948;2022-11-13T03:20:15;102813.88;;;6.98;90.35
71344;BME280;59146;43.850;25.948;2022-11-13T03:22:40;102858.84;;;7.05;91.36
71344;BME280;59146;43.850;25.948;2022-11-13T03:25:06;102806.16;;;6.88;91.25
71344;BME280;59146;43.850;25.948;2022-11-13T03:27:32;102854.22;;;7.36;90.07
71344;BME280;59146;43.850;25.948;2022-11-13T03:29:57;102849.00;;;7.37;89.23
71344;BME280;59146;43.850;25.948;2022-11-13T03:32:23;102872.41;;;7.36;88.99
71344;BME280;59146;43.850;25.948;2022-11-13T03:34:48;102832.84;;;7.06;89.57
71344;BME280;59146;43.850;25.948;2022-11-13T03:37:14;102826.84;;;6.98;89.83
71344;BME280;59146;43.850;25.948;2022-11-13T03:39:39;102687.38;;;6.12;89.96
71344;BME280;59146;43.850;25.948;2022-11-13T03:42:04;102845.78;;;7.14;90.05
71344;BME280;59146;43.850;25.948;2022-11-13T03:44:30;102816.47;;;6.95;89.59
71344;BME280;59146;43.850;25.948;2022-11-13T03:46:55;102771.03;;;6.49;90.30
71344;BME280;59146;43.850;25.948;2022-11-13T03:49:20;102837.97;;;7.15;89.78
71344;BME280;59146;43.850;25.948;2022-11-13T03:51:46;102769.84;;;6.85;89.30
71344;BME280;59146;43.850;25.948;2022-11-13T03:54:11;102852.47;;;7.39;89.13
71344;BME280;59146;43.850;25.948;2022-11-13T03:56:37;102811.81;;;7.31;89.47
71344;BME280;59146;43.850;25.948;2022-11-13T03:59:02;102816.03;;;7.41;89.63
71344;BME280;59146;43.850;25.948;2022-11-13T04:01:28;102765.13;;;7.18;90.03
71344;BME280;59146;43.850;25.948;2022-11-13T04:03:53;102801.34;;;7.37;89.93
71344;BME280;59146;43.850;25.948;2022-11-13T04:06:19;102761.75;;;7.10;90.23
71344;BME280;59146;43.850;25.948;2022-11-13T04:08:46;102760.00;;;7.12;90.72
71344;BME280;59146;43.850;25.948;2022-11-13T04:11:12;102875.63;;;7.59;91.47
71344;BME280;59146;43.850;25.948;2022-11-13T04:13:38;102842.75;;;7.53;91.53
71344;BME280;59146;43.850;25.948;2022-11-13T04:16:04;102831.53;;;7.50;91.75
71344;BME280;59146;43.850;25.948;2022-11-13T04:18:30;102804.66;;;7.51;91.43
71344;BME280;59146;43.850;25.948;2022-11-13T04:21:03;102798.44;;;7.64;91.23
71344;BME280;59146;43.850;25.948;2022-11-13T04:23:29;102841.34;;;7.99;91.08
71344;BME280;59146;43.850;25.948;2022-11-13T04:25:55;102811.03;;;7.94;91.03
71344;BME280;59146;43.850;25.948;2022-11-13T04:28:21;102840.28;;;8.14;91.11
71344;BME280;59146;43.850;25.948;2022-11-13T04:30:47;102779.94;;;7.85;90.65
71344;BME280;59146;43.850;25.948;2022-11-13T04:33:12;102791.97;;;7.93;90.97
71344;BME280;59146;43.850;25.948;2022-11-13T04:35:38;102778.25;;;7.81;91.13
71344;BME280;59146;43.850;25.948;2022-11-13T04:38:06;102831.66;;;8.09;91.30
71344;BME280;59146;43.850;25.948;2022-11-13T04:40:31;102749.91;;;7.61;91.55
71344;BME280;59146;43.850;25.948;2022-11-13T04:42:57;102785.06;;;7.91;91.73
71344;BME280;59146;43.850;25.948;2022-11-13T04:45:23;102774.75;;;7.85;91.81
71344;BME280;59146;43.850;25.948;2022-11-13T04:47:52;102829.59;;;8.35;91.61
71344;BME280;59146;43.850;25.948;2022-11-13T04:50:17;102779.66;;;8.06;91.40
71344;BME280;59146;43.850;25.948;2022-11-13T04:52:43;102783.09;;;8.07;91.63
71344;BME280;59146;43.850;25.948;2022-11-13T04:55:09;102776.91;;;8.17;91.11
71344;BME280;59146;43.850;25.948;2022-11-13T04:57:35;102764.13;;;8.00;91.01
71344;BME280;59146;43.850;25.948;2022-11-13T05:00:03;102747.63;;;7.98;90.42
71344;BME280;59146;43.850;25.948;2022-11-13T05:02:28;102861.31;;;8.60;90.41
71344;BME280;59146;43.850;25.948;2022-11-13T05:04:54;102846.50;;;8.63;90.16
71344;BME280;59146;43.850;25.948;2022-11-13T05:07:19;102836.09;;;8.65;90.08
71344;BME280;59146;43.850;25.948;2022-11-13T05:09:45;102784.41;;;8.38;90.01
71344;BME280;59146;43.850;25.948;2022-11-13T05:12:10;102816.34;;;8.50;89.32
71344;BME280;59146;43.850;25.948;2022-11-13T05:14:37;102789.63;;;8.36;89.28
71344;BME280;59146;43.850;25.948;2022-11-13T05:17:04;102823.09;;;8.62;89.21
71344;BME280;59146;43.850;25.948;2022-11-13T05:19:33;102778.25;;;8.43;88.76
71344;BME280;59146;43.850;25.948;2022-11-13T05:21:59;102855.88;;;8.73;88.81
71344;BME280;59146;43.850;25.948;2022-11-13T05:24:25;102783.03;;;8.11;89.43
71344;BME280;59146;43.850;25.948;2022-11-13T05:26:50;102711.72;;;7.63;89.72
71344;BME280;59146;43.850;25.948;2022-11-13T05:29:16;102800.22;;;8.21;89.79
71344;BME280;59146;43.850;25.948;2022-11-13T05:31:42;102806.22;;;8.31;88.90
71344;BME280;59146;43.850;25.948;2022-11-13T05:34:08;102720.94;;;7.87;88.61
71344;BME280;59146;43.850;25.948;2022-11-13T05:36:33;102796.75;;;8.25;88.89
71344;BME280;59146;43.850;25.948;2022-11-13T05:38:59;102769.31;;;7.98;89.21
71344;BME280;59146;43.850;25.948;2022-11-13T05:41:24;102792.38;;;8.24;88.97
71344;BME280;59146;43.850;25.948;2022-11-13T05:43:50;102804.31;;;8.40;88.58
71344;BME280;59146;43.850;25.948;2022-11-13T05:46:21;102796.66;;;8.30;88.85
71344;BME280;59146;43.850;25.948;2022-11-13T05:48:51;102794.19;;;8.21;89.42
71344;BME280;59146;43.850;25.948;2022-11-13T05:51:20;102790.69;;;8.22;89.62
71344;BME280;59146;43.850;25.948;2022-11-13T05:53:46;102794.22;;;8.18;89.81
71344;BME280;59146;43.850;25.948;2022-11-13T05:56:21;102753.72;;;8.00;89.64
71344;BME280;59146;43.850;25.948;2022-11-13T05:58:48;102863.88;;;8.64;89.78
71344;BME280;59146;43.850;25.948;2022-11-13T06:01:20;102792.41;;;8.21;90.35
71344;BME280;59146;43.850;25.948;2022-11-13T06:03:47;102833.84;;;8.41;90.38
71344;BME280;59146;43.850;25.948;2022-11-13T06:06:14;102804.56;;;8.25;90.92
71344;BME280;59146;43.850;25.948;2022-11-13T06:08:40;102812.97;;;8.44;91.02
71344;BME280;59146;43.850;25.948;2022-11-13T06:11:09;102784.38;;;8.39;90.99
71344;BME280;59146;43.850;25.948;2022-11-13T06:13:36;102830.88;;;8.65;90.87
71344;BME280;59146;43.850;25.948;2022-11-13T06:16:05;102859.09;;;8.92;90.66
71344;BME280;59146;43.850;25.948;2022-11-13T06:18:31;102831.44;;;8.82;90.37
71344;BME280;59146;43.850;25.948;2022-11-13T06:21:20;102872.41;;;9.24;90.24
71344;BME280;59146;43.850;25.948;2022-11-13T06:23:46;102825.09;;;8.98;89.02
71344;BME280;59146;43.850;25.948;2022-11-13T06:26:17;102765.13;;;8.49;88.43
71344;BME280;59146;43.850;25.948;2022-11-13T06:28:43;102889.00;;;9.20;88.57
71344;BME280;59146;43.850;25.948;2022-11-13T06:31:11;102774.31;;;8.70;88.72
71344;BME280;59146;43.850;25.948;2022-11-13T06:33:38;102816.50;;;8.92;89.09
71344;BME280;59146;43.850;25.948;2022-11-13T06:36:05;102840.44;;;9.13;89.43
71344;BME280;59146;43.850;25.948;2022-11-13T06:38:33;102818.91;;;9.04;88.88
71344;BME280;59146;43.850;25.948;2022-11-13T06:41:00;102802.50;;;8.97;88.79
71344;BME280;59146;43.850;25.948;2022-11-13T06:43:27;102822.69;;;9.33;89.60
71344;BME280;59146;43.850;25.948;2022-11-13T06:45:53;102864.78;;;9.61;88.11
71344;BME280;59146;43.850;25.948;2022-11-13T06:48:19;102860.00;;;9.37;86.43
71344;BME280;59146;43.850;25.948;2022-11-13T06:50:44;102852.53;;;9.19;86.66
71344;BME280;59146;43.850;25.948;2022-11-13T06:53:10;102829.47;;;8.96;87.27
71344;BME280;59146;43.850;25.948;2022-11-13T06:55:35;102796.16;;;8.61;88.55
71344;BME280;59146;43.850;25.948;2022-11-13T06:58:06;102844.81;;;9.13;87.93
71344;BME280;59146;43.850;25.948;2022-11-13T07:00:32;102847.19;;;9.25;87.27
71344;BME280;59146;43.850;25.948;2022-11-13T07:02:57;102870.22;;;9.50;87.19
71344;BME280;59146;43.850;25.948;2022-11-13T07:05:23;102789.34;;;9.03;88.24
71344;BME280;59146;43.850;25.948;2022-11-13T07:07:48;102812.69;;;9.11;87.62
71344;BME280;59146;43.850;25.948;2022-11-13T07:10:13;102830.44;;;9.38;87.56
71344;BME280;59146;43.850;25.948;2022-11-13T07:12:39;102803.81;;;9.21;87.60
71344;BME280;59146;43.850;25.948;2022-11-13T07:15:05;102829.72;;;9.30;87.57
71344;BME280;59146;43.850;25.948;2022-11-13T07:17:31;102843.69;;;9.26;88.72
71344;BME280;59146;43.850;25.948;2022-11-13T07:19:56;102765.94;;;9.02;88.00
71344;BME280;59146;43.850;25.948;2022-11-13T07:22:21;102809.63;;;9.35;87.32
71344;BME280;59146;43.850;25.948;2022-11-13T07:24:47;102871.81;;;9.56;88.34
71344;BME280;59146;43.850;25.948;2022-11-13T07:27:12;102795.03;;;9.25;88.64
71344;BME280;59146;43.850;25.948;2022-11-13T07:29:38;102742.88;;;9.25;87.46
71344;BME280;59146;43.850;25.948;2022-11-13T07:32:04;102861.19;;;10.09;88.51
71344;BME280;59146;43.850;25.948;2022-11-13T07:34:29;102856.44;;;10.28;87.94
71344;BME280;59146;43.850;25.948;2022-11-13T07:36:54;102803.34;;;10.27;87.75
71344;BME280;59146;43.850;25.948;2022-11-13T07:39:20;102781.41;;;10.33;85.99
71344;BME280;59146;43.850;25.948;2022-11-13T07:41:46;102835.38;;;10.72;84.81
71344;BME280;59146;43.850;25.948;2022-11-13T07:44:11;102839.47;;;10.81;83.81
71344;BME280;59146;43.850;25.948;2022-11-13T07:46:37;102832.75;;;10.72;83.72
71344;BME280;59146;43.850;25.948;2022-11-13T07:49:02;102853.25;;;10.89;83.97
71344;BME280;59146;43.850;25.948;2022-11-13T07:51:27;102864.75;;;10.82;84.01
71344;BME280;59146;43.850;25.948;2022-11-13T07:53:53;102861.56;;;10.69;83.99
71344;BME280;59146;43.850;25.948;2022-11-13T07:56:18;102790.88;;;10.38;84.11
71344;BME280;59146;43.850;25.948;2022-11-13T07:58:44;102766.31;;;10.09;84.04
71344;BME280;59146;43.850;25.948;2022-11-13T08:01:10;102835.88;;;10.50;84.33
71344;BME280;59146;43.850;25.948;2022-11-13T08:03:35;102823.66;;;10.52;83.71
71344;BME280;59146;43.850;25.948;2022-11-13T08:06:06;102729.03;;;10.02;83.74
71344;BME280;59146;43.850;25.948;2022-11-13T08:08:32;102836.03;;;10.79;82.98
71344;BME280;59146;43.850;25.948;2022-11-13T08:11:02;102722.78;;;10.08;82.46
71344;BME280;59146;43.850;25.948;2022-11-13T08:13:28;102796.75;;;10.48;83.07
71344;BME280;59146;43.850;25.948;2022-11-13T08:15:53;102760.69;;;10.27;82.82
71344;BME280;59146;43.850;25.948;2022-11-13T08:18:19;102768.66;;;10.21;83.66
71344;BME280;59146;43.850;25.948;2022-11-13T08:20:44;102818.97;;;10.66;83.05
71344;BME280;59146;43.850;25.948;2022-11-13T08:23:09;102816.34;;;10.66;83.10
71344;BME280;59146;43.850;25.948;2022-11-13T08:25:35;102788.69;;;10.56;82.97
71344;BME280;59146;43.850;25.948;2022-11-13T08:28:00;102817.19;;;10.66;83.30
71344;BME280;59146;43.850;25.948;2022-11-13T08:30:27;102769.75;;;10.48;82.96
71344;BME280;59146;43.850;25.948;2022-11-13T08:32:53;102809.19;;;10.74;83.20
71344;BME280;59146;43.850;25.948;2022-11-13T08:35:18;102807.78;;;10.94;83.16
71344;BME280;59146;43.850;25.948;2022-11-13T08:37:44;102765.59;;;10.74;82.97
71344;BME280;59146;43.850;25.948;2022-11-13T08:40:10;102786.63;;;11.03;81.75
71344;BME280;59146;43.850;25.948;2022-11-13T08:42:35;102838.28;;;11.28;81.50
71344;BME280;59146;43.850;25.948;2022-11-13T08:45:01;102767.50;;;10.68;82.11
71344;BME280;59146;43.850;25.948;2022-11-13T08:47:26;102835.72;;;11.26;82.21
71344;BME280;59146;43.850;25.948;2022-11-13T08:49:54;102833.59;;;11.06;82.79
71344;BME280;59146;43.850;25.948;2022-11-13T08:52:19;102732.88;;;10.92;81.72
71344;BME280;59146;43.850;25.948;2022-11-13T08:54:45;102809.84;;;11.46;79.81
71344;BME280;59146;43.850;25.948;2022-11-13T08:57:10;102816.94;;;11.43;80.30
71344;BME280;59146;43.850;25.948;2022-11-13T08:59:36;102789.81;;;11.45;79.78
71344;BME280;59146;43.850;25.948;2022-11-13T09:02:02;102805.47;;;11.77;78.17
71344;BME280;59146;43.850;25.948;2022-11-13T09:04:27;102803.91;;;11.72;78.55
71344;BME280;59146;43.850;25.948;2022-11-13T09:06:52;102797.56;;;11.48;80.10
71344;BME280;59146;43.850;25.948;2022-11-13T09:09:19;102770.69;;;11.43;79.47
71344;BME280;59146;43.850;25.948;2022-11-13T09:11:45;102807.28;;;11.77;78.65
71344;BME280;59146;43.850;25.948;2022-11-13T09:14:11;102815.81;;;11.51;79.68
71344;BME280;59146;43.850;25.948;2022-11-13T09:16:36;102767.34;;;11.38;79.94
71344;BME280;59146;43.850;25.948;2022-11-13T09:19:02;102826.88;;;11.61;79.56
71344;BME280;59146;43.850;25.948;2022-11-13T09:21:28;102797.94;;;11.67;79.36
71344;BME280;59146;43.850;25.948;2022-11-13T09:23:54;102747.53;;;11.59;78.64
71344;BME280;59146;43.850;25.948;2022-11-13T09:26:19;102709.50;;;11.18;78.55
71344;BME280;59146;43.850;25.948;2022-11-13T09:28:45;102748.84;;;11.44;79.00
71344;BME280;59146;43.850;25.948;2022-11-13T09:31:10;102742.13;;;11.66;78.95
71344;BME280;59146;43.850;25.948;2022-11-13T09:33:36;102787.00;;;12.11;78.39
71344;BME280;59146;43.850;25.948;2022-11-13T09:36:01;102708.03;;;11.68;77.40
71344;BME280;59146;43.850;25.948;2022-11-13T09:38:27;102737.88;;;11.91;78.02
71344;BME280;59146;43.850;25.948;2022-11-13T09:41:12;102793.91;;;12.41;77.13
71344;BME280;59146;43.850;25.948;2022-11-13T09:48:50;102670.47;;;11.96;75.84
71344;BME280;59146;43.850;25.948;2022-11-13T09:51:23;102783.84;;;12.28;77.85
71344;BME280;59146;43.850;25.948;2022-11-13T09:53:50;102707.31;;;11.90;76.73
71344;BME280;59146;43.850;25.948;2022-11-13T09:58:52;102782.81;;;12.33;77.39
71344;BME280;59146;43.850;25.948;2022-11-13T10:02:02;102778.09;;;11.89;80.00
71344;BME280;59146;43.850;25.948;2022-11-13T10:12:51;102611.47;;;11.30;77.69
71344;BME280;59146;43.850;25.948;2022-11-13T10:15:18;102719.03;;;12.07;77.75
71344;BME280;59146;43.850;25.948;2022-11-13T10:21:03;102765.72;;;12.48;77.67
71344;BME280;59146;43.850;25.948;2022-11-13T10:23:23;102714.22;;;12.21;77.64
71344;BME280;59146;43.850;25.948;2022-11-13T10:25:50;102707.41;;;12.41;77.18
71344;BME280;59146;43.850;25.948;2022-11-13T10:28:21;102752.66;;;12.46;77.80
71344;BME280;59146;43.850;25.948;2022-11-13T10:30:48;102751.84;;;12.44;77.73
71344;BME280;59146;43.850;25.948;2022-11-13T10:33:20;102597.59;;;11.55;77.60
71344;BME280;59146;43.850;25.948;2022-11-13T10:36:31;102738.03;;;12.65;76.28
71344;BME280;59146;43.850;25.948;2022-11-13T10:39:07;102723.06;;;12.69;76.04
71344;BME280;59146;43.850;25.948;2022-11-13T10:41:48;102686.53;;;12.38;76.85
71344;BME280;59146;43.850;25.948;2022-11-13T10:44:25;102672.44;;;12.67;74.90
71344;BME280;59146;43.850;25.948;2022-11-13T10:47:13;102701.28;;;12.67;75.51
71344;BME280;59146;43.850;25.948;2022-11-13T10:49:39;102594.75;;;12.15;76.21
71344;BME280;59146;43.850;25.948;2022-11-13T10:52:16;102633.81;;;12.47;75.31
71344;BME280;59146;43.850;25.948;2022-11-13T10:54:43;102520.97;;;12.03;74.75
71344;BME280;59146;43.850;25.948;2022-11-13T10:57:29;102682.41;;;13.07;74.87
71344;BME280;59146;43.850;25.948;2022-11-13T10:59:55;102643.75;;;12.87;73.95
71344;BME280;59146;43.850;25.948;2022-11-13T11:02:23;102676.28;;;13.06;73.86
71344;BME280;59146;43.850;25.948;2022-11-13T11:04:59;102613.13;;;12.40;74.65
71344;BME280;59146;43.850;25.948;2022-11-13T11:07:24;102691.53;;;12.95;74.66
71344;BME280;59146;43.850;25.948;2022-11-13T11:09:50;102633.88;;;12.94;73.63
71344;BME280;59146;43.850;25.948;2022-11-13T11:12:18;102617.81;;;13.03;72.97
71344;BME280;59146;43.850;25.948;2022-11-13T11:17:17;102651.09;;;13.25;73.15
71344;BME280;59146;43.850;25.948;2022-11-13T11:19:52;102640.81;;;13.19;72.95
71344;BME280;59146;43.850;25.948;2022-11-13T11:22:22;102661.13;;;13.37;72.36
71344;BME280;59146;43.850;25.948;2022-11-13T11:25:05;102629.81;;;13.10;73.06
71344;BME280;59146;43.850;25.948;2022-11-13T11:27:34;102680.53;;;13.33;73.46
71344;BME280;59146;43.850;25.948;2022-11-13T11:30:08;102652.69;;;12.82;74.86
71344;BME280;59146;43.850;25.948;2022-11-13T11:32:45;102614.97;;;12.61;75.13
71344;BME280;59146;43.850;25.948;2022-11-13T11:35:25;102672.94;;;13.01;75.19
71344;BME280;59146;43.850;25.948;2022-11-13T11:38:01;102668.78;;;12.96;76.36
71344;BME280;59146;43.850;25.948;2022-11-13T11:40:39;102652.41;;;12.89;76.22
71344;BME280;59146;43.850;25.948;2022-11-13T11:45:42;102634.63;;;12.97;74.99
71344;BME280;59146;43.850;25.948;2022-11-13T11:48:29;102663.97;;;13.08;74.91
71344;BME280;59146;43.850;25.948;2022-11-13T11:56:38;102614.31;;;13.02;73.54
71344;BME280;59146;43.850;25.948;2022-11-13T12:01:58;102658.78;;;13.30;72.75
71344;BME280;59146;43.850;25.948;2022-11-13T12:09:46;102621.66;;;13.17;72.88
71344;BME280;59146;43.850;25.948;2022-11-13T12:15:24;102562.34;;;12.67;73.45
71344;BME280;59146;43.850;25.948;2022-11-13T12:18:00;102643.03;;;13.30;72.63
71344;BME280;59146;43.850;25.948;2022-11-13T12:20:49;102605.66;;;13.00;72.64
71344;BME280;59146;43.850;25.948;2022-11-13T12:23:25;102643.34;;;13.44;78.07
71344;BME280;59146;43.850;25.948;2022-11-13T12:34:50;102568.97;;;13.22;74.88
71344;BME280;59146;43.850;25.948;2022-11-13T12:51:00;102618.72;;;13.70;72.77
71344;BME280;59146;43.850;25.948;2022-11-13T12:53:28;102618.38;;;13.99;72.67
71344;BME280;59146;43.850;25.948;2022-11-13T12:56:00;102578.53;;;13.46;69.72
71344;BME280;59146;43.850;25.948;2022-11-13T12:58:27;102636.94;;;13.51;71.02
71344;BME280;59146;43.850;25.948;2022-11-13T13:01:15;102568.94;;;13.23;74.71
71344;BME280;59146;43.850;25.948;2022-11-13T13:11:42;102629.63;;;13.59;71.89
71344;BME280;59146;43.850;25.948;2022-11-13T13:14:31;102639.16;;;13.62;71.99
71344;BME280;59146;43.850;25.948;2022-11-13T13:17:20;102524.78;;;13.11;70.69
71344;BME280;59146;43.850;25.948;2022-11-13T13:19:59;102619.53;;;13.70;72.14
71344;BME280;59146;43.850;25.948;2022-11-13T13:22:30;102571.88;;;13.37;71.79
71344;BME280;59146;43.850;25.948;2022-11-13T13:27:41;102526.69;;;13.08;72.25
71344;BME280;59146;43.850;25.948;2022-11-13T13:30:20;102588.72;;;13.53;71.89
71344;BME280;59146;43.850;25.948;2022-11-13T13:35:48;102563.44;;;13.29;71.51
71344;BME280;59146;43.850;25.948;2022-11-13T13:43:38;102565.56;;;13.20;72.65
71344;BME280;59146;43.850;25.948;2022-11-13T13:46:14;102602.34;;;13.18;74.16
71344;BME280;59146;43.850;25.948;2022-11-13T13:48:48;102520.00;;;12.76;73.52
71344;BME280;59146;43.850;25.948;2022-11-13T13:51:49;102593.94;;;13.10;74.24
71344;BME280;59146;43.850;25.948;2022-11-13T13:54:18;102595.53;;;13.14;76.48
71344;BME280;59146;43.850;25.948;2022-11-13T13:56:45;102563.31;;;12.86;75.13
71344;BME280;59146;43.850;25.948;2022-11-13T13:59:27;102546.13;;;12.79;73.98
71344;BME280;59146;43.850;25.948;2022-11-13T14:01:55;102590.50;;;13.08;73.31
71344;BME280;59146;43.850;25.948;2022-11-13T14:04:23;102533.19;;;12.74;73.73
71344;BME280;59146;43.850;25.948;2022-11-13T14:06:58;102527.44;;;12.65;74.13
71344;BME280;59146;43.850;25.948;2022-11-13T14:09:28;102479.56;;;12.37;74.10
71344;BME280;59146;43.850;25.948;2022-11-13T14:12:15;102593.25;;;13.05;73.69
71344;BME280;59146;43.850;25.948;2022-11-13T14:14:41;102543.19;;;12.65;74.41
71344;BME280;59146;43.850;25.948;2022-11-13T14:17:10;102496.38;;;12.31;74.69
71344;BME280;59146;43.850;25.948;2022-11-13T14:19:36;102545.19;;;12.57;75.14